Time;durP1;ratioP1;P1;durP2;ratioP2;P2;SDS_P1;SDS_P2;PMS_P1;PMS_P2;Temp;Humidity;BMP_temperature;BMP_pressure;BME280_temperature;BME280_humidity;BME280_pressure;Samples;Min_cycle;Max_cycle;Signal;HPM_P1;HPM_P2
2024/04/24 00:00:02;;;;;;;5.38;2.15;;;8.70;99.90;;;;;;4453923;26;20355;-68
2024/04/24 00:02:07;;;;;;;8.70;3.40;;;8.70;99.90;;;;;;4462266;26;20344;-61
2024/04/24 00:04:08;;;;;;;5.90;2.40;;;8.70;99.90;;;;;;4446777;26;20012;-71
2024/04/24 00:06:09;;;;;;;9.90;3.35;;;8.80;99.90;;;;;;4454501;26;20043;-65
2024/04/24 00:08:09;;;;;;;12.63;3.70;;;8.70;99.90;;;;;;4419864;26;20013;-67
2024/04/24 00:10:10;;;;;;;9.02;3.88;;;8.70;99.90;;;;;;4458944;26;20022;-68
2024/04/24 00:12:11;;;;;;;6.07;3.28;;;8.80;99.90;;;;;;4446416;26;20004;-67
2024/04/24 00:14:12;;;;;;;4.45;2.63;;;8.70;99.90;;;;;;4462919;26;20011;-64
2024/04/24 00:16:12;;;;;;;4.70;2.70;;;8.70;99.90;;;;;;4446892;26;20406;-71
2024/04/24 00:18:13;;;;;;;7.05;3.13;;;8.70;99.90;;;;;;4457440;26;20102;-61
2024/04/24 00:20:19;;;;;;;5.82;2.83;;;8.70;99.90;;;;;;4410173;26;20037;-68
2024/04/24 00:22:19;;;;;;;9.65;3.42;;;8.70;99.90;;;;;;4417974;26;20058;-72
2024/04/24 00:24:20;;;;;;;7.60;2.63;;;8.70;99.90;;;;;;4450298;26;20000;-60
2024/04/24 00:26:21;;;;;;;10.68;3.53;;;8.60;99.90;;;;;;4449141;26;20022;-61
2024/04/24 00:28:21;;;;;;;10.45;2.70;;;8.60;99.90;;;;;;4452033;26;21500;-61
2024/04/24 00:30:23;;;;;;;7.88;3.05;;;8.60;99.90;;;;;;4446013;26;20056;-60
2024/04/24 00:32:24;;;;;;;8.68;3.00;;;8.60;99.90;;;;;;4459304;26;20004;-65
2024/04/24 00:34:24;;;;;;;6.72;2.20;;;8.60;99.90;;;;;;4447171;26;20356;-72
2024/04/24 00:36:29;;;;;;;5.43;2.20;;;8.60;99.90;;;;;;4415857;26;20021;-65
2024/04/24 00:38:30;;;;;;;6.57;2.55;;;8.60;99.90;;;;;;4426180;26;20110;-61
2024/04/24 00:40:36;;;;;;;9.40;2.60;;;8.60;99.90;;;;;;4425956;26;20009;-60
2024/04/24 00:42:37;;;;;;;8.25;2.70;;;8.60;99.90;;;;;;4456388;26;20027;-61
2024/04/24 00:44:38;;;;;;;9.35;3.17;;;8.60;99.90;;;;;;4459255;26;20003;-67
2024/04/24 00:46:39;;;;;;;9.07;2.22;;;8.60;99.90;;;;;;4464593;26;20464;-68
2024/04/24 00:48:42;;;;;;;3.97;1.98;;;8.60;99.90;;;;;;4454647;26;20012;-68
2024/04/24 00:50:43;;;;;;;6.45;2.30;;;8.50;99.90;;;;;;4450904;26;20043;-67
2024/04/24 00:52:44;;;;;;;7.63;2.22;;;8.60;99.90;;;;;;4458304;26;20007;-72
2024/04/24 00:54:45;;;;;;;7.82;2.25;;;8.60;99.90;;;;;;4418522;26;20026;-68
2024/04/24 00:56:46;;;;;;;7.20;2.13;;;8.50;99.90;;;;;;4419005;26;21200;-67
2024/04/24 00:58:47;;;;;;;7.55;2.25;;;8.50;99.90;;;;;;4452667;26;20044;-67
2024/04/24 01:00:49;;;;;;;3.58;1.52;;;8.50;99.90;;;;;;4426866;26;21182;-68
2024/04/24 01:02:50;;;;;;;7.28;1.60;;;8.40;99.90;;;;;;4458186;26;20004;-68
2024/04/24 01:04:51;;;;;;;4.18;1.17;;;8.40;99.90;;;;;;4459045;26;20368;-65
2024/04/24 01:06:52;;;;;;;4.75;1.67;;;8.40;99.90;;;;;;4455939;26;20383;-68
2024/04/24 01:08:52;;;;;;;4.10;1.13;;;8.40;99.90;;;;;;4460500;26;20011;-67
2024/04/24 01:10:57;;;;;;;1.90;1.00;;;8.30;99.90;;;;;;4451863;26;20015;-71
2024/04/24 01:12:58;;;;;;;4.72;1.48;;;8.30;99.90;;;;;;4427362;26;20016;-67
2024/04/24 01:14:58;;;;;;;2.53;0.98;;;8.30;99.90;;;;;;4448924;26;20016;-71
2024/04/24 01:17:04;;;;;;;2.88;1.10;;;8.30;99.90;;;;;;4450569;26;20018;-71
2024/04/24 01:19:13;;;;;;;2.40;0.88;;;8.30;99.90;;;;;;4423790;26;20489;-61
2024/04/24 01:21:14;;;;;;;3.00;1.35;;;8.30;99.90;;;;;;4463990;26;20015;-69
2024/04/24 01:23:25;;;;;;;4.18;1.10;;;8.30;99.90;;;;;;4460025;26;20048;-61
2024/04/24 01:25:38;;;;;;;3.22;1.00;;;8.40;99.90;;;;;;4451723;26;20633;-61
2024/04/24 01:27:39;;;;;;;3.85;1.65;;;8.30;99.90;;;;;;4444275;26;20421;-71
2024/04/24 01:29:39;;;;;;;3.17;1.25;;;8.30;99.90;;;;;;4456255;26;20004;-66
2024/04/24 01:31:40;;;;;;;3.83;1.40;;;8.30;99.90;;;;;;4422895;26;20024;-72
2024/04/24 01:33:41;;;;;;;4.60;0.88;;;8.30;99.90;;;;;;4456775;26;20392;-68
2024/04/24 01:35:42;;;;;;;2.15;1.10;;;8.30;99.90;;;;;;4452566;26;20093;-61
2024/04/24 01:37:43;;;;;;;3.00;1.27;;;8.40;99.90;;;;;;4457124;26;20452;-69
2024/04/24 01:39:43;;;;;;;6.18;1.60;;;8.40;99.90;;;;;;4454168;26;20526;-61
2024/04/24 01:41:44;;;;;;;5.55;1.58;;;8.30;99.90;;;;;;4456474;26;20004;-68
2024/04/24 01:43:45;;;;;;;4.00;1.30;;;8.30;99.90;;;;;;4452181;26;20495;-65
2024/04/24 01:45:46;;;;;;;4.18;1.35;;;8.30;99.90;;;;;;4452440;26;20019;-69
2024/04/24 01:47:46;;;;;;;3.55;1.38;;;8.30;99.90;;;;;;4451892;26;20441;-69
2024/04/24 01:49:47;;;;;;;6.35;1.45;;;8.30;99.90;;;;;;4455521;26;20007;-68
2024/04/24 01:51:47;;;;;;;6.03;1.38;;;8.30;99.90;;;;;;4433582;26;20646;-67
2024/04/24 01:53:48;;;;;;;6.82;1.83;;;8.30;99.90;;;;;;4420471;26;20086;-68
2024/04/24 01:55:48;;;;;;;6.63;1.50;;;8.30;99.90;;;;;;4459552;26;20019;-68
2024/04/24 01:57:49;;;;;;;3.10;1.25;;;8.30;99.90;;;;;;4452156;26;20388;-68
2024/04/24 01:59:50;;;;;;;6.95;1.80;;;8.30;99.90;;;;;;4392404;26;941325;-68
2024/04/24 02:01:50;;;;;;;5.03;1.40;;;8.30;99.90;;;;;;4464698;26;20004;-68
2024/04/24 02:03:51;;;;;;;8.15;1.75;;;8.30;99.90;;;;;;4452777;26;20016;-68
2024/04/24 02:05:51;;;;;;;3.10;1.33;;;8.20;99.90;;;;;;4449693;26;20086;-68
2024/04/24 02:07:52;;;;;;;6.22;1.75;;;8.20;99.90;;;;;;4457395;26;20500;-61
2024/04/24 02:09:53;;;;;;;6.40;1.52;;;8.20;99.90;;;;;;4470816;26;20545;-68
2024/04/24 02:11:54;;;;;;;3.08;1.65;;;8.20;99.90;;;;;;4417430;26;20012;-61
2024/04/24 02:13:54;;;;;;;3.15;1.10;;;8.20;99.90;;;;;;4458251;26;20004;-67
2024/04/24 02:15:55;;;;;;;4.30;1.30;;;8.20;99.90;;;;;;4450187;26;21398;-68
2024/04/24 02:18:02;;;;;;;4.93;1.40;;;8.20;99.90;;;;;;4455489;26;20024;-60
2024/04/24 02:20:03;;;;;;;2.85;1.20;;;8.20;99.90;;;;;;4440920;26;20067;-61
2024/04/24 02:22:04;;;;;;;3.78;1.10;;;8.20;99.90;;;;;;4456440;26;20023;-68
2024/04/24 02:24:07;;;;;;;4.93;1.23;;;8.20;99.90;;;;;;4453660;26;20014;-72
2024/04/24 02:26:08;;;;;;;9.82;1.85;;;8.20;99.90;;;;;;4448023;26;20019;-67
2024/04/24 02:28:09;;;;;;;5.45;1.45;;;8.20;99.90;;;;;;4461909;26;20004;-68
2024/04/24 02:30:10;;;;;;;7.03;1.92;;;8.10;99.90;;;;;;4458658;26;20423;-67
2024/04/24 02:32:11;;;;;;;4.07;1.40;;;8.10;99.90;;;;;;4448876;26;20004;-60
2024/04/24 02:34:11;;;;;;;6.70;2.05;;;8.10;99.90;;;;;;4461361;26;20045;-65
2024/04/24 02:36:12;;;;;;;6.40;1.58;;;8.10;99.90;;;;;;4443788;26;20014;-69
2024/04/24 02:38:12;;;;;;;4.25;1.40;;;8.00;99.90;;;;;;4452336;26;20008;-64
2024/04/24 02:40:13;;;;;;;4.28;1.50;;;8.00;99.90;;;;;;4456498;26;20344;-63
2024/04/24 02:42:14;;;;;;;4.68;1.60;;;8.00;99.90;;;;;;4428828;26;20005;-68
2024/04/24 02:44:14;;;;;;;5.43;1.55;;;8.00;99.90;;;;;;4471447;26;20027;-68
2024/04/24 02:46:15;;;;;;;5.35;1.48;;;8.00;99.90;;;;;;4423996;26;20023;-68
2024/04/24 02:48:15;;;;;;;7.65;2.25;;;8.00;99.90;;;;;;4456104;26;20073;-68
2024/04/24 02:50:16;;;;;;;6.78;1.50;;;8.00;99.90;;;;;;4421644;26;20020;-69
2024/04/24 02:52:17;;;;;;;9.77;2.33;;;8.00;99.90;;;;;;4457171;26;20016;-68
2024/04/24 02:54:17;;;;;;;5.10;1.75;;;8.00;99.90;;;;;;4453438;26;20015;-70
2024/04/24 02:56:18;;;;;;;6.28;1.70;;;8.00;99.90;;;;;;4463389;26;20015;-68
2024/04/24 02:58:18;;;;;;;4.80;1.50;;;8.00;99.90;;;;;;4459673;26;20464;-68
2024/04/24 03:00:19;;;;;;;5.60;1.88;;;8.00;99.90;;;;;;4430977;26;20023;-67
2024/04/24 03:02:20;;;;;;;2.90;1.27;;;8.10;99.90;;;;;;4464027;26;20019;-67
2024/04/24 03:04:20;;;;;;;5.65;1.83;;;8.00;99.90;;;;;;4428388;26;20016;-67
2024/04/24 03:06:21;;;;;;;9.85;2.10;;;8.00;99.90;;;;;;4456045;26;20004;-67
2024/04/24 03:08:21;;;;;;;5.97;1.65;;;8.00;99.90;;;;;;4403630;26;20017;-66
2024/04/24 03:10:22;;;;;;;5.07;1.60;;;8.00;99.90;;;;;;4436236;26;20031;-69
2024/04/24 03:12:25;;;;;;;8.02;2.13;;;8.00;99.90;;;;;;4452058;26;20024;-69
2024/04/24 03:14:26;;;;;;;7.15;1.88;;;7.90;99.90;;;;;;4405881;26;20001;-69
2024/04/24 03:16:30;;;;;;;6.03;1.90;;;8.00;99.90;;;;;;4419671;26;20484;-64
2024/04/24 03:18:31;;;;;;;5.32;1.80;;;7.90;99.90;;;;;;4462455;26;20019;-69
2024/04/24 03:20:32;;;;;;;6.35;1.95;;;8.00;99.90;;;;;;4452013;26;20503;-66
2024/04/24 03:22:32;;;;;;;7.30;1.90;;;7.90;99.90;;;;;;4415963;26;20488;-67
2024/04/24 03:24:33;;;;;;;10.32;1.98;;;8.00;99.90;;;;;;4426785;26;20044;-70
2024/04/24 03:26:34;;;;;;;4.40;1.65;;;7.90;99.90;;;;;;4457132;26;20036;-67
2024/04/24 03:28:34;;;;;;;4.25;1.65;;;7.90;99.90;;;;;;4453307;26;20011;-64
2024/04/24 03:30:35;;;;;;;7.55;2.92;;;8.00;99.90;;;;;;4415404;26;20577;-67
2024/04/24 03:32:36;;;;;;;3.88;1.80;;;8.00;99.90;;;;;;4447512;26;20015;-69
2024/04/24 03:34:36;;;;;;;6.50;1.60;;;8.00;99.90;;;;;;4454043;26;20012;-66
2024/04/24 03:36:37;;;;;;;3.13;1.52;;;7.90;99.90;;;;;;4463634;26;20016;-66
2024/04/24 03:38:37;;;;;;;5.03;2.13;;;7.90;99.90;;;;;;4458178;26;20031;-67
2024/04/24 03:40:39;;;;;;;6.07;2.13;;;7.90;99.90;;;;;;4454539;26;20024;-64
2024/04/24 03:42:40;;;;;;;6.75;2.35;;;7.90;99.90;;;;;;4454774;26;20008;-64
2024/04/24 03:44:40;;;;;;;5.20;1.75;;;7.90;99.90;;;;;;4456188;26;20444;-59
2024/04/24 03:46:41;;;;;;;5.63;1.90;;;7.90;99.90;;;;;;4446528;26;20101;-66
2024/04/24 03:48:42;;;;;;;4.82;1.63;;;7.90;99.90;;;;;;4456940;26;20455;-66
2024/04/24 03:50:42;;;;;;;5.07;1.90;;;7.90;99.90;;;;;;4446168;26;20081;-67
2024/04/24 03:52:43;;;;;;;6.13;2.00;;;7.90;99.90;;;;;;4424174;26;20012;-59
2024/04/24 03:54:44;;;;;;;7.50;1.60;;;7.90;99.90;;;;;;4454229;26;20008;-69
2024/04/24 03:56:44;;;;;;;4.95;1.70;;;7.80;99.90;;;;;;4448952;26;20032;-69
2024/04/24 03:58:48;;;;;;;3.45;1.40;;;7.80;99.90;;;;;;4451753;26;20470;-66
2024/04/24 04:00:49;;;;;;;5.65;1.70;;;7.90;99.90;;;;;;4423581;26;20090;-64
2024/04/24 04:02:50;;;;;;;6.38;1.95;;;7.80;99.90;;;;;;4433671;26;20464;-66
2024/04/24 04:04:51;;;;;;;4.03;1.40;;;7.80;99.90;;;;;;4442943;26;20082;-65
2024/04/24 04:06:51;;;;;;;4.18;1.48;;;7.80;99.90;;;;;;4423976;26;20066;-66
2024/04/24 04:08:55;;;;;;;3.80;1.60;;;7.80;99.90;;;;;;4440907;26;20379;-66
2024/04/24 04:10:56;;;;;;;4.18;1.13;;;7.80;99.90;;;;;;4441628;26;20365;-66
2024/04/24 04:12:59;;;;;;;7.35;2.08;;;7.80;99.90;;;;;;4451835;26;20086;-66
2024/04/24 04:15:00;;;;;;;10.07;2.17;;;7.80;99.90;;;;;;4439130;26;20085;-65
2024/04/24 04:17:01;;;;;;;4.15;1.88;;;7.80;99.90;;;;;;4438320;26;20471;-65
2024/04/24 04:19:02;;;;;;;10.23;1.92;;;7.70;99.90;;;;;;4410095;26;20009;-66
2024/04/24 04:21:03;;;;;;;3.53;1.50;;;7.70;99.90;;;;;;4431775;26;20027;-66
2024/04/24 04:23:04;;;;;;;4.10;1.55;;;7.70;99.90;;;;;;4453031;26;20016;-66
2024/04/24 04:25:05;;;;;;;4.32;1.92;;;7.60;99.90;;;;;;4454017;26;20043;-67
2024/04/24 04:27:06;;;;;;;2.75;1.05;;;7.50;99.90;;;;;;4459816;26;20008;-65
2024/04/24 04:29:07;;;;;;;4.75;1.88;;;7.60;99.90;;;;;;4452307;26;20015;-66
2024/04/24 04:31:07;;;;;;;5.68;1.58;;;7.60;99.90;;;;;;4397182;26;20010;-66
2024/04/24 04:33:09;;;;;;;3.90;1.10;;;7.60;99.90;;;;;;4438829;26;25288;-65
2024/04/24 04:35:09;;;;;;;3.65;1.50;;;7.60;99.90;;;;;;4450176;26;20019;-66
2024/04/24 04:37:10;;;;;;;3.53;1.58;;;7.60;99.90;;;;;;4450373;26;20027;-66
2024/04/24 04:39:11;;;;;;;3.85;1.50;;;7.60;99.90;;;;;;4459001;26;20356;-66
2024/04/24 04:41:12;;;;;;;4.32;1.23;;;7.50;99.90;;;;;;4437988;26;20014;-66
2024/04/24 04:43:13;;;;;;;3.28;1.30;;;7.60;99.90;;;;;;4440951;26;20027;-65
2024/04/24 04:45:15;;;;;;;4.28;1.10;;;7.60;99.90;;;;;;4434243;26;20344;-66
2024/04/24 04:47:15;;;;;;;4.45;1.75;;;7.60;99.90;;;;;;4447911;26;20023;-66
2024/04/24 04:49:16;;;;;;;4.85;1.25;;;7.60;99.90;;;;;;4454161;26;20003;-65
2024/04/24 04:51:20;;;;;;;4.28;1.17;;;7.60;99.90;;;;;;4437113;26;20102;-66
2024/04/24 04:53:23;;;;;;;2.92;1.20;;;7.60;99.90;;;;;;4459262;26;20007;-66
2024/04/24 04:55:27;;;;;;;6.07;1.48;;;7.60;99.90;;;;;;4441805;26;20008;-66
2024/04/24 04:57:28;;;;;;;6.25;1.70;;;7.60;99.90;;;;;;4418956;26;20465;-65
2024/04/24 04:59:29;;;;;;;3.00;1.52;;;7.50;99.90;;;;;;4396108;26;20021;-65
2024/04/24 05:01:30;;;;;;;6.68;1.52;;;7.60;99.90;;;;;;4443087;26;20000;-59
2024/04/24 05:03:31;;;;;;;2.60;1.40;;;7.60;99.90;;;;;;4460880;26;20008;-59
2024/04/24 05:05:31;;;;;;;3.10;1.42;;;7.60;99.90;;;;;;4453008;26;20008;-59
2024/04/24 05:07:32;;;;;;;2.85;1.25;;;7.60;99.90;;;;;;4457018;26;20352;-59
2024/04/24 05:09:35;;;;;;;4.15;1.30;;;7.50;99.90;;;;;;4424465;26;20005;-59
2024/04/24 05:11:35;;;;;;;4.75;1.48;;;7.60;99.90;;;;;;4422388;26;20016;-59
2024/04/24 05:13:36;;;;;;;6.00;1.58;;;7.60;99.90;;;;;;4458296;26;20000;-59
2024/04/24 05:15:37;;;;;;;2.55;1.30;;;7.60;99.90;;;;;;4411855;26;20001;-59
2024/04/24 05:17:38;;;;;;;2.90;1.33;;;7.50;99.90;;;;;;4453451;26;20044;-59
2024/04/24 05:19:38;;;;;;;4.13;1.27;;;7.50;99.90;;;;;;4422125;26;20044;-59
2024/04/24 05:21:40;;;;;;;5.40;1.38;;;7.50;99.90;;;;;;4465737;26;20012;-59
2024/04/24 05:23:41;;;;;;;2.90;1.50;;;7.50;99.90;;;;;;4453887;26;20329;-59
2024/04/24 05:25:41;;;;;;;5.13;1.60;;;7.50;99.90;;;;;;4449315;26;20023;-60
2024/04/24 05:30:03;;;;;;;5.60;1.58;;;7.50;99.90;;;;;;4449539;26;20010;-60
2024/04/24 05:32:04;;;;;;;4.60;1.75;;;7.50;99.90;;;;;;4452198;26;20015;-59
2024/04/24 05:34:06;;;;;;;4.60;1.40;;;7.60;99.90;;;;;;4454173;26;20004;-59
2024/04/24 05:36:07;;;;;;;5.30;1.75;;;7.50;99.90;;;;;;4415091;26;20011;-61
2024/04/24 05:38:07;;;;;;;11.18;3.50;;;7.60;99.90;;;;;;4452772;26;20011;-59
2024/04/24 05:40:08;;;;;;;8.38;1.85;;;7.70;99.90;;;;;;4420374;26;20009;-60
2024/04/24 05:42:09;;;;;;;3.22;1.45;;;7.70;99.90;;;;;;4451559;26;20015;-59
2024/04/24 05:44:10;;;;;;;6.00;1.80;;;7.70;99.90;;;;;;4462184;26;20478;-59
2024/04/24 05:46:10;;;;;;;8.07;1.90;;;7.80;99.90;;;;;;4439354;26;20353;-59
2024/04/24 05:48:11;;;;;;;8.82;2.45;;;7.80;99.90;;;;;;4450847;26;20318;-59
2024/04/24 05:50:13;;;;;;;7.93;2.40;;;7.80;99.90;;;;;;4452460;26;20026;-59
2024/04/24 05:52:13;;;;;;;5.20;1.80;;;7.80;99.90;;;;;;4447205;26;20367;-63
2024/04/24 05:54:14;;;;;;;8.18;1.90;;;7.80;99.90;;;;;;4458972;26;20008;-61
2024/04/24 05:56:15;;;;;;;5.00;1.58;;;7.80;99.90;;;;;;4452784;26;20012;-61
2024/04/24 05:58:15;;;;;;;8.30;1.77;;;7.80;99.90;;;;;;4447986;26;20019;-60
2024/04/24 06:00:16;;;;;;;6.78;1.52;;;7.80;99.90;;;;;;4454587;26;20008;-59
2024/04/24 06:02:17;;;;;;;5.03;1.55;;;7.90;99.90;;;;;;4446169;26;20004;-59
2024/04/24 06:04:18;;;;;;;4.88;1.75;;;7.80;99.90;;;;;;4423721;26;20098;-60
2024/04/24 06:06:18;;;;;;;5.32;1.85;;;7.80;99.90;;;;;;4416612;26;20023;-59
2024/04/24 06:08:19;;;;;;;6.10;1.55;;;7.80;99.90;;;;;;4452799;26;20016;-66
2024/04/24 06:10:19;;;;;;;3.08;1.23;;;7.80;99.90;;;;;;4461799;26;20431;-59
2024/04/24 06:12:20;;;;;;;7.13;1.85;;;7.80;99.90;;;;;;4433801;26;20024;-62
2024/04/24 06:14:20;;;;;;;5.28;1.80;;;7.90;99.90;;;;;;4459582;26;20008;-60
2024/04/24 06:16:21;;;;;;;7.15;1.70;;;7.90;99.90;;;;;;4417430;26;20473;-59
2024/04/24 06:18:22;;;;;;;4.07;1.38;;;7.90;99.90;;;;;;4447231;26;20027;-59
2024/04/24 06:20:22;;;;;;;4.80;1.58;;;7.90;99.90;;;;;;4463201;26;20018;-59
2024/04/24 06:22:23;;;;;;;8.45;1.90;;;7.90;99.90;;;;;;4462241;26;20023;-59
2024/04/24 06:24:23;;;;;;;4.68;1.60;;;7.90;99.90;;;;;;4474497;26;20055;-59
2024/04/24 06:26:24;;;;;;;8.57;1.73;;;7.90;99.90;;;;;;4450286;26;20376;-58
2024/04/24 06:28:25;;;;;;;7.38;1.70;;;7.90;99.90;;;;;;4448591;26;20012;-58
2024/04/24 06:30:25;;;;;;;7.40;1.67;;;8.00;99.90;;;;;;4457970;26;20014;-59
2024/04/24 06:32:26;;;;;;;8.15;1.60;;;8.00;99.90;;;;;;4460613;26;20337;-59
2024/04/24 06:34:26;;;;;;;3.35;1.27;;;8.10;99.90;;;;;;4458688;26;20019;-58
2024/04/24 06:36:27;;;;;;;4.38;1.67;;;8.30;99.90;;;;;;4452703;26;20414;-58
2024/04/24 06:38:27;;;;;;;4.28;1.60;;;8.40;99.90;;;;;;4457394;26;20004;-59
2024/04/24 06:40:28;;;;;;;11.52;2.47;;;8.40;99.90;;;;;;4456610;26;20015;-65
2024/04/24 06:42:29;;;;;;;4.97;1.60;;;8.40;99.90;;;;;;4462090;26;20000;-65
2024/04/24 06:44:30;;;;;;;6.20;1.50;;;8.50;99.90;;;;;;4440544;26;20052;-65
2024/04/24 06:46:31;;;;;;;5.97;1.65;;;8.50;99.90;;;;;;4443013;26;20074;-64
2024/04/24 06:48:32;;;;;;;4.57;1.20;;;8.70;99.90;;;;;;4409320;26;20005;-65
2024/04/24 06:50:33;;;;;;;8.60;1.92;;;8.90;99.90;;;;;;4454098;26;20035;-64
2024/04/24 06:52:34;;;;;;;4.97;1.63;;;9.20;99.90;;;;;;4446962;26;20110;-64
2024/04/24 06:54:35;;;;;;;6.45;1.98;;;9.50;99.90;;;;;;4445501;26;20012;-64
2024/04/24 06:56:37;;;;;;;6.90;1.63;;;9.80;99.90;;;;;;4427612;26;20016;-64
2024/04/24 06:58:38;;;;;;;3.92;1.08;;;10.00;99.90;;;;;;4450114;26;20012;-65
2024/04/24 07:00:39;;;;;;;4.00;1.35;;;10.10;99.90;;;;;;4445695;26;20464;-64
2024/04/24 07:02:40;;;;;;;5.50;1.50;;;10.30;99.90;;;;;;4446156;26;20086;-64
2024/04/24 07:04:41;;;;;;;5.88;1.58;;;10.40;99.90;;;;;;4449841;26;20563;-64
2024/04/24 07:06:42;;;;;;;9.98;2.10;;;10.60;99.90;;;;;;4455225;26;20014;-64
2024/04/24 07:08:42;;;;;;;5.18;1.63;;;10.90;99.90;;;;;;4425206;26;20108;-64
2024/04/24 07:10:43;;;;;;;5.53;1.70;;;11.00;99.90;;;;;;4456399;26;20336;-64
2024/04/24 07:12:44;;;;;;;7.93;1.70;;;11.10;99.90;;;;;;4454715;26;20545;-64
2024/04/24 07:14:45;;;;;;;6.80;1.30;;;11.10;99.90;;;;;;4446367;26;20004;-64
2024/04/24 07:16:46;;;;;;;8.05;1.75;;;11.30;99.90;;;;;;4453187;26;20467;-64
2024/04/24 07:18:47;;;;;;;5.82;1.40;;;11.20;99.90;;;;;;4450874;26;20005;-64
2024/04/24 07:20:48;;;;;;;6.13;1.60;;;11.30;99.90;;;;;;4436408;26;20012;-72
2024/04/24 07:22:50;;;;;;;4.40;1.67;;;11.30;99.90;;;;;;4446299;26;20036;-72
2024/04/24 07:24:51;;;;;;;4.88;1.58;;;11.40;99.90;;;;;;4450403;26;20014;-70
2024/04/24 07:26:51;;;;;;;7.70;2.03;;;11.40;99.90;;;;;;4452284;26;20437;-70
2024/04/24 07:28:52;;;;;;;6.40;1.50;;;11.40;99.90;;;;;;4450701;26;20008;-72
2024/04/24 07:30:53;;;;;;;5.82;2.03;;;11.30;99.90;;;;;;4451224;26;20099;-71
2024/04/24 07:32:53;;;;;;;12.70;2.42;;;11.10;99.90;;;;;;4451200;26;20007;-71
2024/04/24 07:34:54;;;;;;;11.38;1.70;;;11.00;99.90;;;;;;4440637;26;20004;-71
2024/04/24 07:36:55;;;;;;;7.13;1.70;;;10.90;99.90;;;;;;4438492;26;20079;-71
2024/04/24 07:38:56;;;;;;;5.78;1.77;;;10.80;99.90;;;;;;4445968;26;20047;-71
2024/04/24 07:41:00;;;;;;;7.82;2.15;;;10.80;99.90;;;;;;4423240;26;20461;-72
2024/04/24 07:43:01;;;;;;;5.07;1.55;;;10.70;99.90;;;;;;4434437;26;20013;-71
2024/04/24 07:45:01;;;;;;;9.57;2.20;;;10.60;99.90;;;;;;4447319;26;20001;-71
2024/04/24 07:47:02;;;;;;;12.32;1.98;;;10.50;99.90;;;;;;4426236;26;20019;-71
2024/04/24 07:49:03;;;;;;;10.82;2.20;;;10.40;99.90;;;;;;4456984;26;20014;-71
2024/04/24 07:51:04;;;;;;;8.45;2.03;;;10.30;99.90;;;;;;4451189;26;20012;-72
2024/04/24 07:53:05;;;;;;;7.22;1.70;;;10.20;99.90;;;;;;4445693;26;20491;-71
2024/04/24 07:55:06;;;;;;;5.20;1.38;;;10.10;99.90;;;;;;4449167;26;20011;-70
2024/04/24 07:57:06;;;;;;;8.10;1.77;;;9.90;99.90;;;;;;4410782;26;20023;-70
2024/04/24 07:59:08;;;;;;;8.13;2.03;;;10.00;99.90;;;;;;4414236;26;20009;-71
2024/04/24 08:01:08;;;;;;;8.88;2.30;;;10.00;99.90;;;;;;4376370;26;20006;-70
2024/04/24 08:03:09;;;;;;;9.75;2.00;;;10.00;99.90;;;;;;4373543;26;20339;-71
2024/04/24 08:05:10;;;;;;;6.93;1.80;;;10.00;99.90;;;;;;4382792;26;20013;-71
2024/04/24 08:07:11;;;;;;;7.80;2.20;;;10.00;99.90;;;;;;4379667;27;20486;-71
2024/04/24 08:09:11;;;;;;;17.00;2.25;;;9.90;99.90;;;;;;4386537;27;20119;-71
2024/04/24 08:11:12;;;;;;;14.35;2.50;;;9.90;99.90;;;;;;4376522;26;20020;-71
2024/04/24 08:13:13;;;;;;;9.38;2.00;;;9.80;99.90;;;;;;4384902;26;20022;-71
2024/04/24 08:15:14;;;;;;;10.82;2.40;;;9.80;99.90;;;;;;4382854;27;20001;-71
2024/04/24 08:17:17;;;;;;;7.93;2.15;;;9.70;99.90;;;;;;4378982;26;20084;-72
2024/04/24 08:19:18;;;;;;;9.35;2.45;;;9.70;99.90;;;;;;4371715;27;20115;-71
2024/04/24 08:21:19;;;;;;;7.65;1.75;;;9.70;99.90;;;;;;4379461;26;20001;-71
2024/04/24 08:23:19;;;;;;;7.68;2.15;;;9.70;99.90;;;;;;4362973;26;20065;-70
2024/04/24 08:25:21;;;;;;;10.48;2.30;;;9.70;99.90;;;;;;4371990;26;20367;-71
2024/04/24 08:27:23;;;;;;;12.68;2.40;;;9.70;99.90;;;;;;4377094;26;20017;-70
2024/04/24 08:29:26;;;;;;;9.35;2.10;;;9.80;99.90;;;;;;4376824;26;20070;-72
2024/04/24 08:31:27;;;;;;;7.97;1.95;;;9.80;99.90;;;;;;4380244;26;20843;-62
2024/04/24 08:33:32;;;;;;;7.78;1.88;;;9.90;99.90;;;;;;4382173;26;20466;-61
2024/04/24 08:35:32;;;;;;;5.25;1.92;;;9.90;99.90;;;;;;4380124;27;20009;-61
2024/04/24 08:37:33;;;;;;;11.90;2.58;;;10.00;99.90;;;;;;4373764;26;20026;-62
2024/04/24 08:39:34;;;;;;;6.35;2.08;;;10.00;99.90;;;;;;4361401;27;20010;-62
2024/04/24 08:41:35;;;;;;;6.05;2.03;;;10.00;99.90;;;;;;4377265;26;20021;-62
2024/04/24 08:43:37;;;;;;;9.35;2.30;;;10.00;99.90;;;;;;4380025;27;20035;-61
2024/04/24 08:45:40;;;;;;;6.05;1.42;;;10.10;99.90;;;;;;4374747;26;20017;-62
2024/04/24 08:47:42;;;;;;;10.23;2.33;;;10.20;99.90;;;;;;4376815;26;20024;-61
2024/04/24 08:49:45;;;;;;;10.25;2.13;;;10.20;99.90;;;;;;4383130;26;20030;-61
2024/04/24 08:51:46;;;;;;;15.40;2.65;;;10.20;99.90;;;;;;4378729;26;20056;-61
2024/04/24 08:53:59;;;;;;;12.98;2.83;;;10.30;99.90;;;;;;4379004;26;20013;-61
2024/04/24 08:56:08;;;;;;;9.27;2.38;;;10.30;99.90;;;;;;4376399;26;20413;-61
2024/04/24 08:58:10;;;;;;;9.35;2.00;;;10.30;99.90;;;;;;4382341;26;20021;-61
2024/04/24 09:00:13;;;;;;;6.60;2.30;;;10.40;99.90;;;;;;4405314;26;20385;-62
2024/04/24 09:02:18;;;;;;;11.27;2.70;;;10.40;99.90;;;;;;4415911;26;20108;-61
2024/04/24 09:04:19;;;;;;;10.20;2.58;;;10.40;99.90;;;;;;4451889;26;20440;-61
2024/04/24 09:06:21;;;;;;;5.15;1.75;;;10.30;99.90;;;;;;4407165;26;20013;-61
2024/04/24 09:08:25;;;;;;;6.20;1.75;;;10.40;99.90;;;;;;4442418;26;20015;-62
2024/04/24 09:10:26;;;;;;;11.55;2.40;;;10.30;99.90;;;;;;4447657;26;20014;-62
2024/04/24 09:12:29;;;;;;;10.30;2.28;;;10.20;99.90;;;;;;4444519;26;20485;-62
2024/04/24 09:14:31;;;;;;;7.28;1.77;;;10.20;99.90;;;;;;4452837;26;20003;-63
2024/04/24 09:16:36;;;;;;;8.25;2.15;;;10.10;99.90;;;;;;4460797;26;20015;-64
2024/04/24 09:18:37;;;;;;;10.43;2.53;;;10.10;99.90;;;;;;4454757;26;20589;-61
2024/04/24 09:20:41;;;;;;;14.90;2.33;;;10.10;99.90;;;;;;4458787;26;20004;-62
2024/04/24 09:22:42;;;;;;;12.18;2.42;;;10.10;99.90;;;;;;4455359;26;20487;-61
2024/04/24 09:24:49;;;;;;;14.23;2.88;;;10.00;99.90;;;;;;4424299;26;20017;-61
2024/04/24 09:26:50;;;;;;;11.77;1.95;;;10.10;99.90;;;;;;4425113;26;21135;-61
2024/04/24 09:28:51;;;;;;;10.95;2.42;;;10.20;99.90;;;;;;4451133;26;20020;-61
2024/04/24 09:30:57;;;;;;;12.10;2.53;;;10.20;99.90;;;;;;4449241;26;20007;-61
2024/04/24 09:32:58;;;;;;;10.60;2.13;;;10.30;99.90;;;;;;4446871;26;20345;-62
2024/04/24 09:34:59;;;;;;;9.00;2.25;;;10.30;99.90;;;;;;4448971;26;20004;-61
2024/04/24 09:37:02;;;;;;;8.60;2.25;;;10.20;99.90;;;;;;4445224;26;20022;-62
2024/04/24 09:39:06;;;;;;;5.90;1.73;;;10.20;99.90;;;;;;4415518;26;20016;-61
2024/04/24 09:41:09;;;;;;;10.52;1.85;;;10.30;99.90;;;;;;4451955;26;20015;-66
2024/04/24 09:43:10;;;;;;;12.02;2.50;;;10.30;99.90;;;;;;4449909;26;20344;-65
2024/04/24 09:45:11;;;;;;;5.85;1.90;;;10.40;99.90;;;;;;4454271;26;20008;-65
2024/04/24 09:47:12;;;;;;;8.57;2.25;;;10.30;99.90;;;;;;4449114;26;20368;-66
2024/04/24 09:49:13;;;;;;;12.25;2.65;;;10.30;99.90;;;;;;4449539;26;22480;-66
2024/04/24 09:51:15;;;;;;;5.85;2.05;;;10.20;99.90;;;;;;4447964;26;20000;-66
2024/04/24 09:53:20;;;;;;;10.20;2.20;;;10.20;99.90;;;;;;4451210;26;20008;-66
2024/04/24 09:55:28;;;;;;;11.55;2.30;;;10.10;99.90;;;;;;4451570;26;20087;-66
2024/04/24 09:57:33;;;;;;;16.42;3.08;;;9.90;99.90;;;;;;4433015;26;20004;-65
2024/04/24 09:59:38;;;;;;;10.45;2.65;;;9.70;99.90;;;;;;4445999;26;20044;-68
2024/04/24 10:01:46;;;;;;;6.30;1.80;;;9.60;99.90;;;;;;4441151;26;20953;-65
2024/04/24 10:03:54;;;;;;;4.72;1.45;;;9.60;99.90;;;;;;4447588;26;20356;-66
2024/04/24 10:05:59;;;;;;;5.28;1.33;;;9.60;99.90;;;;;;4447696;26;20000;-66
2024/04/24 10:08:04;;;;;;;11.60;2.55;;;9.50;99.90;;;;;;4435993;26;20011;-66
2024/04/24 10:10:07;;;;;;;11.93;2.28;;;9.60;99.90;;;;;;4436567;26;20338;-66
2024/04/24 10:12:36;;;;;;;7.18;1.35;;;9.40;99.90;;;;;;4453177;26;20004;-66
2024/04/24 10:14:41;;;;;;;5.72;1.52;;;9.20;99.90;;;;;;4432267;26;20464;-66
2024/04/24 10:16:44;;;;;;;7.93;1.40;;;9.00;99.90;;;;;;4445074;26;20027;-66
2024/04/24 10:18:47;;;;;;;4.05;0.93;;;9.00;99.90;;;;;;4455144;26;20927;-66
2024/04/24 10:20:49;;;;;;;;;;;8.90;99.90;;;;;;4453677;26;20417;-66
2024/04/24 10:22:51;;;;;;;4.90;1.55;;;8.90;99.90;;;;;;4457034;26;19933;-66
2024/04/24 10:24:52;;;;;;;4.63;0.98;;;8.90;99.90;;;;;;4457779;26;20015;-66
2024/04/24 10:26:56;;;;;;;3.38;1.20;;;8.80;99.90;;;;;;4451846;26;20024;-65
2024/04/24 10:28:58;;;;;;;2.90;0.85;;;8.80;99.90;;;;;;4456272;26;20344;-65
2024/04/24 10:31:01;;;;;;;4.07;0.95;;;9.00;99.90;;;;;;4451741;26;20007;-66
2024/04/24 10:33:06;;;;;;;4.75;1.48;;;9.10;99.90;;;;;;4452634;26;20000;-68
2024/04/24 10:35:08;;;;;;;8.00;1.40;;;9.20;99.90;;;;;;4411266;26;20016;-70
2024/04/24 10:37:08;;;;;;;4.03;1.40;;;9.30;99.90;;;;;;4443528;26;20019;-66
2024/04/24 10:39:10;;;;;;;4.40;1.75;;;9.40;99.90;;;;;;4449710;26;20004;-67